createdAt,value
2019-03-25T00:01:54.213Z,24.70
2019-03-25T00:04:24.519Z,24.20
2019-03-25T00:06:54.877Z,24.50
2019-03-25T00:09:25.207Z,24.30
2019-03-25T00:11:55.521Z,25.83
2019-03-25T00:14:25.857Z,25.97
2019-03-25T00:16:56.306Z,25.83
2019-03-25T00:19:26.702Z,27.10
2019-03-25T00:21:57.279Z,27.33
2019-03-25T00:24:38.335Z,28.07
2019-03-25T00:26:59.632Z,28.37
2019-03-25T00:29:29.929Z,29.80
2019-03-25T00:32:00.335Z,28.40
2019-03-25T00:34:30.736Z,29.20
2019-03-25T00:37:01.101Z,28.73
2019-03-25T00:39:31.455Z,30.53
2019-03-25T00:42:01.782Z,29.40
2019-03-25T00:44:32.172Z,30.27
2019-03-25T00:47:02.478Z,28.03
2019-03-25T00:49:32.775Z,28.33
2019-03-25T00:52:03.086Z,29.07
2019-03-25T00:54:33.391Z,28.50
2019-03-25T00:57:03.727Z,27.93
2019-03-25T00:59:34.073Z,27.90
2019-03-25T01:02:04.400Z,28.40
2019-03-25T01:04:34.724Z,27.67
2019-03-25T01:07:05.086Z,28.20
2019-03-25T01:09:35.510Z,27.07
2019-03-25T01:12:05.922Z,27.50
2019-03-25T01:14:36.285Z,28.07
2019-03-25T01:17:06.700Z,27.37
2019-03-25T01:19:37.038Z,26.73
2019-03-25T01:22:07.333Z,27.73
2019-03-25T01:24:37.647Z,27.30
2019-03-25T01:27:07.938Z,27.00
2019-03-25T01:29:38.293Z,27.63
2019-03-25T01:32:08.714Z,27.10
2019-03-25T01:34:39.081Z,27.93
2019-03-25T01:37:09.486Z,26.87
2019-03-25T01:39:39.741Z,27.50
2019-03-25T01:42:11.409Z,27.63
2019-03-25T01:44:42.056Z,25.77
2019-03-25T01:47:12.394Z,26.50
2019-03-25T01:49:42.766Z,27.40
2019-03-25T01:52:13.115Z,27.40
2019-03-25T01:54:43.562Z,27.00
2019-03-25T01:57:13.906Z,26.67
2019-03-25T01:59:44.208Z,26.23
2019-03-25T02:02:14.521Z,27.53
2019-03-25T02:04:44.802Z,27.50
2019-03-25T02:07:15.178Z,26.17
2019-03-25T02:09:45.571Z,27.87
2019-03-25T02:12:15.953Z,27.63
2019-03-25T02:14:46.320Z,28.87
2019-03-25T02:17:16.585Z,25.33
2019-03-25T02:19:46.977Z,26.17
2019-03-25T02:22:17.364Z,25.67
2019-03-25T02:24:47.687Z,25.20
2019-03-25T02:27:18.094Z,25.27
2019-03-25T02:29:48.410Z,24.47
2019-03-25T02:32:18.750Z,24.43
2019-03-25T02:34:49.079Z,23.57
2019-03-25T02:37:19.519Z,23.77
2019-03-25T02:39:49.929Z,22.30
2019-03-25T02:42:20.303Z,23.07
2019-03-25T02:44:50.717Z,21.53
2019-03-25T02:47:21.043Z,21.43
2019-03-25T02:49:51.415Z,21.87
2019-03-25T02:52:21.854Z,22.00
2019-03-25T02:54:52.686Z,20.13
2019-03-25T02:57:23.105Z,22.07
2019-03-25T02:59:53.439Z,21.43
2019-03-25T03:02:23.979Z,22.40
2019-03-25T03:04:54.342Z,21.17
2019-03-25T03:07:24.679Z,21.40
2019-03-25T03:09:55.016Z,21.57
2019-03-25T03:12:25.339Z,20.87
2019-03-25T03:14:55.796Z,21.17
2019-03-25T03:17:26.152Z,21.77
2019-03-25T03:19:56.461Z,20.17
2019-03-25T03:22:26.787Z,19.37
2019-03-25T03:24:57.263Z,20.87
2019-03-25T03:27:29.924Z,19.03
2019-03-25T03:29:59.776Z,19.13
2019-03-25T03:32:30.213Z,18.17
2019-03-25T03:35:01.035Z,18.50
2019-03-25T03:37:31.633Z,18.23
2019-03-25T03:40:02.003Z,18.77
2019-03-25T03:42:32.435Z,18.03
2019-03-25T03:45:02.831Z,18.23
2019-03-25T03:47:33.133Z,18.40
2019-03-25T03:50:03.530Z,15.80
2019-03-25T03:52:34.885Z,16.47
2019-03-25T03:55:05.524Z,16.83
2019-03-25T03:57:36.187Z,17.13
2019-03-25T04:00:07.360Z,16.90
2019-03-25T04:02:37.727Z,16.07
2019-03-25T04:05:08.043Z,15.03
2019-03-25T04:07:38.418Z,15.60
2019-03-25T04:10:09.232Z,15.13
2019-03-25T04:12:39.529Z,13.90
2019-03-25T04:15:11.733Z,13.40
2019-03-25T04:17:42.134Z,12.97
2019-03-25T04:20:12.592Z,12.70
2019-03-25T04:22:42.962Z,12.90
2019-03-25T04:25:13.445Z,12.63
2019-03-25T04:27:43.827Z,12.70
2019-03-25T04:30:14.343Z,12.03
2019-03-25T04:32:44.688Z,12.57
2019-03-25T04:35:15.078Z,12.27
2019-03-25T04:37:45.505Z,15.17
2019-03-25T04:40:16.512Z,11.50
2019-03-25T04:42:46.911Z,11.87
2019-03-25T04:45:17.505Z,12.50
2019-03-25T04:47:47.951Z,12.00
2019-03-25T04:50:18.311Z,11.13
2019-03-25T04:52:48.824Z,11.87
2019-03-25T04:55:19.221Z,12.20
2019-03-25T04:57:49.662Z,12.40
2019-03-25T05:00:33.658Z,11.17
2019-03-25T05:03:04.062Z,11.73
2019-03-25T05:05:36.046Z,10.67
2019-03-25T05:08:06.561Z,11.57
2019-03-25T05:10:37.027Z,10.87
2019-03-25T05:13:07.418Z,11.93
2019-03-25T05:15:37.887Z,11.07
2019-03-25T05:18:08.234Z,11.13
2019-03-25T05:20:38.605Z,11.63
2019-03-25T05:23:08.908Z,11.73
2019-03-25T05:25:39.273Z,12.63
2019-03-25T05:28:09.565Z,11.23
2019-03-25T05:30:40.015Z,12.67
2019-03-25T05:33:10.391Z,10.50
2019-03-25T05:35:40.710Z,11.07
2019-03-25T05:38:11.195Z,9.23
2019-03-25T05:40:41.552Z,10.47
2019-03-25T05:43:11.958Z,10.30
2019-03-25T05:45:42.216Z,9.43
2019-03-25T05:48:12.618Z,10.03
2019-03-25T05:50:42.993Z,9.23
2019-03-25T05:53:13.385Z,8.97
2019-03-25T05:55:43.739Z,8.60
2019-03-25T05:58:14.060Z,8.73
2019-03-25T06:00:44.620Z,7.97
2019-03-25T06:03:14.978Z,8.53
2019-03-25T06:05:45.378Z,7.37
2019-03-25T06:08:15.753Z,7.83
2019-03-25T06:10:46.077Z,8.70
2019-03-25T06:13:16.463Z,7.90
2019-03-25T06:15:46.786Z,9.10
2019-03-25T06:18:17.199Z,7.30
2019-03-25T06:20:47.512Z,7.00
2019-03-25T06:23:17.891Z,8.00
2019-03-25T06:25:48.356Z,8.03
2019-03-25T06:28:18.690Z,9.63
2019-03-25T06:30:49.103Z,6.90
2019-03-25T06:33:19.434Z,7.13
2019-03-25T06:35:49.858Z,6.47
2019-03-25T06:38:20.290Z,6.67
2019-03-25T06:40:50.642Z,6.83
2019-03-25T06:43:21.037Z,7.83
2019-03-25T06:45:51.401Z,6.50
2019-03-25T06:48:21.710Z,7.20
2019-03-25T06:50:52.197Z,6.73
2019-03-25T06:53:22.707Z,6.60
2019-03-25T06:55:53.062Z,7.20
2019-03-25T06:58:23.415Z,7.83
2019-03-25T07:00:53.840Z,8.43
2019-03-25T07:03:24.243Z,5.90
2019-03-25T07:05:54.702Z,5.57
2019-03-25T07:08:25.042Z,6.13
2019-03-25T07:10:55.537Z,6.43
2019-03-25T07:13:26.393Z,7.90
2019-03-25T07:15:56.738Z,6.60
2019-03-25T07:18:27.154Z,6.33
2019-03-25T07:20:57.512Z,6.00
2019-03-25T07:23:27.812Z,6.60
2019-03-25T07:25:58.109Z,11.77
2019-03-25T07:28:28.477Z,9.87
2019-03-25T07:30:58.910Z,6.30
2019-03-25T07:33:29.187Z,7.27
2019-03-25T07:35:59.517Z,7.03
2019-03-25T07:38:29.843Z,6.73
2019-03-25T07:41:00.201Z,6.03
2019-03-25T07:43:30.554Z,5.50
2019-03-25T07:46:00.954Z,6.57
2019-03-25T07:48:31.273Z,5.63
2019-03-25T07:51:01.991Z,6.03
2019-03-25T07:53:32.382Z,6.20
2019-03-25T07:56:02.697Z,6.23
2019-03-25T07:58:33.092Z,5.63
2019-03-25T08:01:03.475Z,5.93
2019-03-25T08:03:33.979Z,8.10
2019-03-25T08:06:04.328Z,7.37
2019-03-25T08:08:34.673Z,5.60
2019-03-25T08:11:05.107Z,7.53
2019-03-25T08:13:35.461Z,8.20
2019-03-25T08:16:05.763Z,8.43
2019-03-25T08:18:36.129Z,9.93
2019-03-25T08:21:06.467Z,8.53
2019-03-25T08:23:36.910Z,10.60
2019-03-25T08:26:07.262Z,8.40
2019-03-25T08:28:37.630Z,12.07
2019-03-25T08:31:07.940Z,7.90
2019-03-25T08:33:38.247Z,10.30
2019-03-25T08:36:08.587Z,9.53
2019-03-25T08:38:39.107Z,8.40
2019-03-25T08:41:09.442Z,9.37
2019-03-25T08:43:39.853Z,8.93
2019-03-25T08:46:10.186Z,11.43
2019-03-25T08:48:40.491Z,12.33
2019-03-25T08:51:10.872Z,13.67
2019-03-25T08:53:41.205Z,14.07
2019-03-25T08:56:11.582Z,13.00
2019-03-25T08:58:41.935Z,13.87
2019-03-25T09:01:12.382Z,13.33
2019-03-25T09:03:42.747Z,12.87
2019-03-25T09:06:13.049Z,13.93
2019-03-25T09:08:43.327Z,14.93
2019-03-25T09:11:13.778Z,13.77
2019-03-25T09:13:44.129Z,13.57
2019-03-25T09:16:14.601Z,14.07
2019-03-25T09:18:44.879Z,13.77
2019-03-25T09:21:15.335Z,16.87
2019-03-25T09:23:45.879Z,13.97
2019-03-25T09:26:16.342Z,13.40
2019-03-25T09:28:46.752Z,12.83
2019-03-25T09:31:18.673Z,12.07
2019-03-25T09:33:50.107Z,13.90
2019-03-25T09:36:39.079Z,12.13
2019-03-25T09:39:09.647Z,12.30
2019-03-25T09:41:40.022Z,11.03
2019-03-25T09:44:10.426Z,47.13
2019-03-25T09:46:40.687Z,37.77
2019-03-25T09:49:11.049Z,13.40
2019-03-25T09:51:41.696Z,11.67
2019-03-25T09:54:12.033Z,11.87
2019-03-25T09:56:42.433Z,20.87
2019-03-25T09:59:12.850Z,13.53
2019-03-25T10:01:43.231Z,10.53
2019-03-25T10:04:13.560Z,11.13
2019-03-25T10:06:44.070Z,11.33
2019-03-25T10:09:14.394Z,11.80
2019-03-25T10:11:44.762Z,11.53
2019-03-25T10:14:15.064Z,10.73
2019-03-25T10:16:45.486Z,11.00
2019-03-25T10:19:18.371Z,12.27
2019-03-25T10:22:24.152Z,9.43
2019-03-25T10:24:54.527Z,11.23
2019-03-25T10:27:24.818Z,10.87
2019-03-25T10:29:55.209Z,12.37
2019-03-25T10:32:25.565Z,11.40
2019-03-25T10:34:55.907Z,14.23
2019-03-25T10:37:26.322Z,12.50
2019-03-25T10:39:56.710Z,13.83
2019-03-25T10:42:27.197Z,11.00
2019-03-25T10:44:57.547Z,10.70
2019-03-25T10:47:27.912Z,10.83
2019-03-25T10:49:58.194Z,11.47
2019-03-25T10:52:28.492Z,11.23
2019-03-25T10:57:29.275Z,14.73
2019-03-25T10:59:59.637Z,12.87
2019-03-25T11:02:29.880Z,13.50
2019-03-25T11:05:01.433Z,12.20
2019-03-25T11:07:31.858Z,12.13
2019-03-25T11:10:02.219Z,12.27
2019-03-25T11:12:32.602Z,14.03
2019-03-25T11:15:02.904Z,13.03
2019-03-25T11:17:33.361Z,12.40
2019-03-25T11:20:03.670Z,13.13
2019-03-25T11:22:34.077Z,13.10
2019-03-25T11:25:05.363Z,13.33
2019-03-25T11:27:35.808Z,12.37
2019-03-25T11:30:06.868Z,12.57
2019-03-25T11:32:37.246Z,13.00
2019-03-25T11:35:07.974Z,13.20
2019-03-25T11:37:41.649Z,12.80
2019-03-25T11:40:13.287Z,12.07
2019-03-25T11:42:43.670Z,12.43
2019-03-25T11:45:14.427Z,12.23
2019-03-25T11:47:45.768Z,17.37
2019-03-25T11:50:16.544Z,13.37
2019-03-25T11:52:46.881Z,12.00
2019-03-25T11:55:17.861Z,13.87
2019-03-25T11:57:48.262Z,13.13
2019-03-25T12:00:18.886Z,11.33
2019-03-25T12:02:49.139Z,11.90
2019-03-25T12:05:19.589Z,11.90
2019-03-25T12:07:49.970Z,13.43
2019-03-25T12:10:20.267Z,14.53
2019-03-25T12:12:50.714Z,14.87
2019-03-25T12:15:21.094Z,12.67
2019-03-25T12:17:51.457Z,13.30
2019-03-25T12:20:21.975Z,15.90
2019-03-25T12:22:52.252Z,13.83
2019-03-25T12:25:22.586Z,15.43
2019-03-25T12:27:53.047Z,17.50
2019-03-25T12:30:23.460Z,17.53
2019-03-25T12:33:03.526Z,14.93
2019-03-25T12:35:26.318Z,14.33
2019-03-25T12:37:56.773Z,13.07
2019-03-25T12:40:27.105Z,14.10
2019-03-25T12:42:57.408Z,15.53
2019-03-25T12:45:28.534Z,14.97
2019-03-25T12:47:59.033Z,14.47
2019-03-25T12:50:29.346Z,14.83
2019-03-25T12:52:59.741Z,13.63
2019-03-25T12:55:30.282Z,14.60
2019-03-25T12:58:00.697Z,13.73
2019-03-25T13:00:38.903Z,14.10
2019-03-25T13:03:09.404Z,12.83
2019-03-25T13:05:40.290Z,15.03
2019-03-25T13:08:10.734Z,15.07
2019-03-25T13:10:41.227Z,16.23
2019-03-25T13:13:11.603Z,16.80
2019-03-25T13:15:42.202Z,18.07
2019-03-25T13:18:12.678Z,19.50
2019-03-25T13:20:43.046Z,18.10
2019-03-25T13:23:13.370Z,16.73
2019-03-25T13:25:43.694Z,18.10
2019-03-25T13:28:14.003Z,18.87
2019-03-25T13:30:44.398Z,16.33
2019-03-25T13:33:14.766Z,16.80
2019-03-25T13:35:45.154Z,19.07
2019-03-25T13:38:15.633Z,18.27
2019-03-25T13:40:46.043Z,16.87
2019-03-25T13:43:16.400Z,18.20
2019-03-25T13:45:46.850Z,18.07
2019-03-25T13:48:17.240Z,17.83
2019-03-25T13:50:47.547Z,17.97
2019-03-25T13:53:17.930Z,19.37
2019-03-25T13:55:48.313Z,18.63
2019-03-25T13:58:18.638Z,17.63
2019-03-25T14:00:49.032Z,19.33
2019-03-25T14:03:19.961Z,20.33
2019-03-25T14:05:50.317Z,20.10
2019-03-25T14:08:20.690Z,20.60
2019-03-25T14:10:51.065Z,22.87
2019-03-25T14:13:21.509Z,23.60
2019-03-25T14:15:51.832Z,23.43
2019-03-25T14:18:22.161Z,23.90
2019-03-25T14:20:52.430Z,22.70
2019-03-25T14:23:22.822Z,23.17
2019-03-25T14:25:53.225Z,24.80
2019-03-25T14:28:23.559Z,24.00
2019-03-25T14:30:53.858Z,25.47
2019-03-25T14:33:24.178Z,25.47
2019-03-25T14:35:54.507Z,24.40
2019-03-25T14:38:24.842Z,25.30
2019-03-25T14:40:55.210Z,25.20
2019-03-25T14:43:25.605Z,26.03
2019-03-25T14:45:55.866Z,25.00
2019-03-25T14:48:26.142Z,24.07
2019-03-25T14:50:56.534Z,24.23
2019-03-25T14:53:26.910Z,24.70
2019-03-25T14:55:57.317Z,24.70
2019-03-25T14:58:27.652Z,23.17
2019-03-25T15:00:57.991Z,23.50
2019-03-25T15:03:28.315Z,23.90
2019-03-25T15:05:58.619Z,23.70
2019-03-25T15:08:28.943Z,23.80
2019-03-25T15:10:59.309Z,25.40
2019-03-25T15:13:29.634Z,24.40
2019-03-25T15:16:00.156Z,25.40
2019-03-25T15:18:30.681Z,26.87
2019-03-25T15:21:01.011Z,27.67
2019-03-25T15:23:31.463Z,27.97
2019-03-25T15:26:01.794Z,27.37
2019-03-25T15:28:32.065Z,27.50
2019-03-25T15:31:02.505Z,25.97
2019-03-25T15:33:32.764Z,29.13
2019-03-25T15:36:03.110Z,29.40
2019-03-25T15:38:33.490Z,27.17
2019-03-25T15:41:03.822Z,27.67
2019-03-25T15:43:34.147Z,27.43
2019-03-25T15:46:07.703Z,27.63
2019-03-25T15:48:38.101Z,28.23
2019-03-25T15:51:08.421Z,28.20
2019-03-25T15:53:38.786Z,27.80
2019-03-25T15:56:09.216Z,27.80
2019-03-25T15:58:39.543Z,27.43
2019-03-25T16:01:09.886Z,31.53
2019-03-25T16:03:43.022Z,27.47
2019-03-25T16:06:14.572Z,27.50
2019-03-25T16:08:44.958Z,25.63
2019-03-25T16:11:15.386Z,26.57
2019-03-25T16:13:48.483Z,26.40
2019-03-25T16:16:18.897Z,27.73
2019-03-25T16:18:49.238Z,29.10
2019-03-25T16:21:19.634Z,29.77
2019-03-25T16:23:50.002Z,30.83
2019-03-25T16:26:20.388Z,30.93
2019-03-25T16:28:50.749Z,29.93
2019-03-25T16:31:21.092Z,29.33
2019-03-25T16:33:51.454Z,29.47
2019-03-25T16:36:21.868Z,30.60
2019-03-25T16:39:10.937Z,31.73
2019-03-25T16:41:41.361Z,31.07
2019-03-25T16:44:11.718Z,36.50
2019-03-25T16:46:42.135Z,33.37
2019-03-25T16:49:12.515Z,32.90
2019-03-25T16:51:42.932Z,32.53
2019-03-25T16:54:13.246Z,33.10
2019-03-25T16:56:43.571Z,34.53
2019-03-25T16:59:14.046Z,32.97
2019-03-25T17:01:44.505Z,30.83
2019-03-25T17:04:14.854Z,28.77
2019-03-25T17:06:45.260Z,28.10
2019-03-25T17:09:15.710Z,27.13
2019-03-25T17:11:46.058Z,26.27
2019-03-25T17:14:16.442Z,24.70
2019-03-25T17:16:46.747Z,24.70
2019-03-25T17:19:17.122Z,24.57
2019-03-25T17:21:57.415Z,24.63
2019-03-25T17:24:19.452Z,23.57
2019-03-25T17:26:49.847Z,23.90
2019-03-25T17:29:20.149Z,22.70
2019-03-25T17:31:52.938Z,21.67
2019-03-25T17:34:23.355Z,23.57
2019-03-25T17:36:53.791Z,24.30
2019-03-25T17:39:24.617Z,27.53
2019-03-25T17:41:55.158Z,25.10
2019-03-25T17:44:25.490Z,25.60
2019-03-25T17:46:55.870Z,24.73
2019-03-25T17:49:26.208Z,22.37
2019-03-25T17:51:56.560Z,23.57
2019-03-25T17:54:26.934Z,21.63
2019-03-25T17:56:57.239Z,21.93
2019-03-25T17:59:27.734Z,23.27
2019-03-25T18:01:58.099Z,23.23
2019-03-25T18:04:28.482Z,21.77
2019-03-25T18:06:58.750Z,22.27
2019-03-25T18:09:29.197Z,22.47
2019-03-25T18:11:59.484Z,24.90
2019-03-25T18:14:29.943Z,26.57
2019-03-25T18:17:00.345Z,30.60
2019-03-25T18:19:30.712Z,34.13
2019-03-25T18:22:01.249Z,34.73
2019-03-25T18:24:31.594Z,34.20
2019-03-25T18:27:02.433Z,34.03
2019-03-25T18:29:32.884Z,34.83
2019-03-25T18:32:03.266Z,34.73
2019-03-25T18:34:33.630Z,34.63
2019-03-25T18:37:04.049Z,34.17
2019-03-25T18:39:34.401Z,33.30
2019-03-25T18:42:04.842Z,33.13
2019-03-25T18:44:35.785Z,26.73
2019-03-25T18:47:06.110Z,14.30
2019-03-25T18:49:36.461Z,7.10
2019-03-25T18:52:06.984Z,5.43
2019-03-25T18:54:37.364Z,2.30
2019-03-25T18:57:07.717Z,3.23
2019-03-25T18:59:38.146Z,5.90
2019-03-25T19:02:08.545Z,3.33
2019-03-25T19:04:39.016Z,3.83
2019-03-25T19:07:09.462Z,2.83
2019-03-25T19:09:39.826Z,6.13
2019-03-25T19:12:10.145Z,6.67
2019-03-25T19:14:40.477Z,1.73
2019-03-25T19:17:10.901Z,7.40
2019-03-25T19:19:41.262Z,3.50
2019-03-25T19:22:12.928Z,2.97
2019-03-25T19:24:43.505Z,3.33
2019-03-25T19:27:13.790Z,2.70
2019-03-25T19:29:44.304Z,4.03
2019-03-25T19:32:14.812Z,1.70
2019-03-25T19:34:45.253Z,1.90
2019-03-25T19:37:15.773Z,2.43
2019-03-25T19:39:46.075Z,1.63
2019-03-25T19:42:16.457Z,1.60
2019-03-25T19:44:46.802Z,1.83
2019-03-25T19:47:17.141Z,1.20
2019-03-25T19:49:47.470Z,1.03
2019-03-25T19:52:17.878Z,1.40
2019-03-25T19:54:48.221Z,4.03
2019-03-25T19:57:18.633Z,1.50
2019-03-25T19:59:49.116Z,1.90
2019-03-25T20:02:19.682Z,1.63
2019-03-25T20:04:50.240Z,1.93
2019-03-25T20:07:20.583Z,2.17
2019-03-25T20:09:51.020Z,2.83
2019-03-25T20:12:21.348Z,2.93
2019-03-25T20:14:51.660Z,2.40
2019-03-25T20:17:22.139Z,2.63
2019-03-25T20:19:52.537Z,3.00
2019-03-25T20:22:23.110Z,1.93
2019-03-25T20:24:53.518Z,2.87
2019-03-25T20:27:23.971Z,2.00
2019-03-25T20:29:54.437Z,2.57
2019-03-25T20:32:31.545Z,2.10
2019-03-25T20:34:56.703Z,1.77
2019-03-25T20:37:27.084Z,2.47
2019-03-25T20:39:58.087Z,2.00
2019-03-25T20:42:28.457Z,1.70
2019-03-25T20:44:58.810Z,1.60
2019-03-25T20:47:29.098Z,2.97
2019-03-25T20:49:59.559Z,2.00
2019-03-25T20:52:29.925Z,4.93
2019-03-25T20:55:00.475Z,1.40
2019-03-25T20:57:30.272Z,1.77
2019-03-25T21:00:00.782Z,1.50
2019-03-25T21:02:44.203Z,1.50
2019-03-25T21:05:03.217Z,1.33
2019-03-25T21:07:33.668Z,1.30
2019-03-25T21:10:04.012Z,1.50
2019-03-25T21:12:34.374Z,2.23
2019-03-25T21:15:04.999Z,1.80
2019-03-25T21:17:35.457Z,1.27
2019-03-25T21:20:08.033Z,1.67
2019-03-25T21:22:38.408Z,1.20
2019-03-25T21:25:09.298Z,1.20
2019-03-25T21:27:39.573Z,2.43
2019-03-25T21:30:10.025Z,1.40
2019-03-25T21:32:40.398Z,1.27
2019-03-25T21:35:10.918Z,1.53
2019-03-25T21:37:41.330Z,1.13
2019-03-25T21:40:12.055Z,1.60
2019-03-25T21:42:42.391Z,0.93
2019-03-25T21:45:12.912Z,0.90
2019-03-25T21:47:43.300Z,1.83
2019-03-25T21:50:13.934Z,1.83
2019-03-25T21:52:44.333Z,1.37
2019-03-25T21:55:14.676Z,0.87
2019-03-25T21:57:45.086Z,0.80
2019-03-25T22:00:15.792Z,0.80
2019-03-25T22:02:46.126Z,0.70
2019-03-25T22:05:16.538Z,1.00
2019-03-25T22:07:46.823Z,1.17
2019-03-25T22:10:17.320Z,1.23
2019-03-25T22:12:47.624Z,0.80
2019-03-25T22:15:18.073Z,1.00
2019-03-25T22:17:48.449Z,1.00
2019-03-25T22:20:18.938Z,1.50
2019-03-25T22:22:49.306Z,2.03
2019-03-25T22:25:19.758Z,1.80
2019-03-25T22:27:50.145Z,2.53
2019-03-25T22:30:20.488Z,3.40
2019-03-25T22:32:50.839Z,2.13
2019-03-25T22:35:21.158Z,1.47
2019-03-25T22:37:51.542Z,2.10
2019-03-25T22:40:21.835Z,1.57
2019-03-25T22:42:52.244Z,1.90
2019-03-25T22:45:30.435Z,1.80
2019-03-25T22:48:00.917Z,2.37
2019-03-25T22:50:32.593Z,1.10
2019-03-25T22:53:02.946Z,1.20
2019-03-25T22:55:33.420Z,1.33
2019-03-25T22:58:03.770Z,1.10
2019-03-25T23:00:44.502Z,1.37
2019-03-25T23:03:15.735Z,0.80
2019-03-25T23:05:46.077Z,1.20
2019-03-25T23:08:16.486Z,1.63
2019-03-25T23:10:46.853Z,0.90
2019-03-25T23:13:17.194Z,1.83
2019-03-25T23:15:47.553Z,1.60
2019-03-25T23:18:17.823Z,0.80
2019-03-25T23:20:48.135Z,1.50
2019-03-25T23:23:18.916Z,1.00
2019-03-25T23:25:49.315Z,2.17
2019-03-25T23:28:19.613Z,0.70
2019-03-25T23:30:49.914Z,0.60
2019-03-25T23:33:20.366Z,0.60
2019-03-25T23:35:50.645Z,1.87
2019-03-25T23:38:20.947Z,0.80
2019-03-25T23:40:51.304Z,1.33
2019-03-25T23:43:21.650Z,1.00
2019-03-25T23:45:52.016Z,1.23
2019-03-25T23:48:22.377Z,1.57
2019-03-25T23:50:52.797Z,1.07
2019-03-25T23:53:23.146Z,1.20
2019-03-25T23:55:53.558Z,2.30
2019-03-25T23:58:23.986Z,2.50
